createdAt,value
2018-10-16T00:01:01.116Z,95429.48
2018-10-16T00:03:29.541Z,95430.11
2018-10-16T00:05:58.026Z,95434.09
2018-10-16T00:08:26.482Z,95434.91
2018-10-16T00:10:54.881Z,95436.41
2018-10-16T00:13:23.366Z,95439.52
2018-10-16T00:15:51.801Z,95439.11
2018-10-16T00:18:20.246Z,95439.27
2018-10-16T00:20:48.671Z,95447.09
2018-10-16T00:23:17.166Z,95443.22
2018-10-16T00:25:45.614Z,95444.74
2018-10-16T00:28:14.097Z,95438.08
2018-10-16T00:30:42.485Z,95444.02
2018-10-16T00:33:10.966Z,95439.72
2018-10-16T00:35:39.377Z,95445.20
2018-10-16T00:38:07.898Z,95446.16
2018-10-16T00:40:36.546Z,95442.94
2018-10-16T00:43:05.062Z,95448.77
2018-10-16T00:45:33.520Z,95448.89
2018-10-16T00:48:02.019Z,95445.50
2018-10-16T00:50:30.453Z,95449.82
2018-10-16T00:52:58.955Z,95453.91
2018-10-16T00:55:27.407Z,95453.88
2018-10-16T00:57:55.884Z,95452.67
2018-10-16T01:00:24.307Z,95453.34
2018-10-16T01:02:52.766Z,95449.34
2018-10-16T01:05:21.266Z,95445.73
2018-10-16T01:07:49.696Z,95446.83
2018-10-16T01:10:18.142Z,95448.03
2018-10-16T01:12:46.586Z,95449.56
2018-10-16T01:15:15.034Z,95455.47
2018-10-16T01:17:43.450Z,95450.36
2018-10-16T01:20:13.299Z,95455.31
2018-10-16T01:22:42.093Z,95453.30
2018-10-16T01:25:11.587Z,95461.05
2018-10-16T01:27:40.553Z,95462.96
2018-10-16T01:30:09.149Z,95458.87
2018-10-16T01:32:38.057Z,95466.73
2018-10-16T01:35:07.650Z,95465.54
2018-10-16T01:37:36.134Z,95466.02
2018-10-16T01:40:06.419Z,95459.04
2018-10-16T01:42:34.865Z,95455.44
2018-10-16T01:45:03.807Z,95455.08
2018-10-16T01:47:32.282Z,95450.64
2018-10-16T01:50:00.741Z,95450.86
2018-10-16T01:52:29.174Z,95449.97
2018-10-16T01:54:57.638Z,95449.90
2018-10-16T01:57:26.055Z,95450.29
2018-10-16T01:59:54.557Z,95449.14
2018-10-16T02:02:23.049Z,95446.80
2018-10-16T02:04:51.628Z,95448.34
2018-10-16T02:07:20.065Z,95455.40
2018-10-16T02:09:48.483Z,95452.59
2018-10-16T02:12:16.993Z,95455.68
2018-10-16T02:14:45.433Z,95457.98
2018-10-16T02:17:13.939Z,95464.44
2018-10-16T02:19:42.401Z,95469.24
2018-10-16T02:22:10.837Z,95467.89
2018-10-16T02:24:39.386Z,95471.85
2018-10-16T02:27:07.855Z,95474.06
2018-10-16T02:29:36.262Z,95472.84
2018-10-16T02:32:04.926Z,95474.51
2018-10-16T02:34:33.351Z,95476.69
2018-10-16T02:37:01.950Z,95473.25
2018-10-16T02:39:30.391Z,95473.16
2018-10-16T02:41:58.857Z,95471.38
2018-10-16T02:44:27.353Z,95474.91
2018-10-16T02:46:55.805Z,95483.34
2018-10-16T02:49:24.220Z,95480.22
2018-10-16T02:51:52.726Z,95478.79
2018-10-16T02:54:21.151Z,95482.63
2018-10-16T02:56:49.595Z,95484.02
2018-10-16T02:59:18.031Z,95482.67
2018-10-16T03:01:46.469Z,95479.92
2018-10-16T03:04:14.953Z,95490.53
2018-10-16T03:06:43.366Z,95489.74
2018-10-16T03:09:11.819Z,95491.68
2018-10-16T03:11:40.233Z,95492.79
2018-10-16T03:14:08.701Z,95494.45
2018-10-16T03:16:37.117Z,95490.50
2018-10-16T03:19:05.650Z,95497.70
2018-10-16T03:21:34.123Z,95499.84
2018-10-16T03:24:03.166Z,95498.66
2018-10-16T03:26:31.644Z,95498.08
2018-10-16T03:29:00.086Z,95507.69
2018-10-16T03:31:28.512Z,95497.55
2018-10-16T03:33:56.970Z,95503.69
2018-10-16T03:36:25.417Z,95507.23
2018-10-16T03:38:53.945Z,95511.02
2018-10-16T03:41:22.347Z,95519.14
2018-10-16T03:43:59.123Z,95518.71
2018-10-16T03:46:28.014Z,95516.33
2018-10-16T03:48:56.495Z,95529.20
2018-10-16T03:51:25.294Z,95526.98
2018-10-16T03:53:55.674Z,95526.58
2018-10-16T03:56:24.169Z,95527.04
2018-10-16T03:58:52.584Z,95537.16
2018-10-16T04:01:21.094Z,95538.14
2018-10-16T04:03:49.872Z,95536.91
2018-10-16T04:06:18.298Z,95531.31
2018-10-16T04:08:46.698Z,95537.84
2018-10-16T04:11:15.141Z,95539.56
2018-10-16T04:13:43.638Z,95538.78
2018-10-16T04:16:12.046Z,95545.25
2018-10-16T04:18:40.549Z,95548.39
2018-10-16T04:21:09.846Z,95550.39
2018-10-16T04:23:38.964Z,95547.23
2018-10-16T04:26:07.686Z,95553.82
2018-10-16T04:28:36.132Z,95557.06
2018-10-16T04:31:04.641Z,95554.98
2018-10-16T04:33:33.151Z,95557.38
2018-10-16T04:36:02.210Z,95559.48
2018-10-16T04:38:32.519Z,95567.05
2018-10-16T04:41:01.271Z,95561.68
2018-10-16T04:43:29.678Z,95561.00
2018-10-16T04:45:58.107Z,95561.36
2018-10-16T04:48:26.547Z,95564.50
2018-10-16T04:50:54.974Z,95562.66
2018-10-16T04:53:23.430Z,95567.16
2018-10-16T04:55:51.817Z,95569.71
2018-10-16T04:58:20.248Z,95575.30
2018-10-16T05:00:48.677Z,95572.54
2018-10-16T05:03:17.121Z,95579.58
2018-10-16T05:05:45.573Z,95578.13
2018-10-16T05:08:14.063Z,95580.32
2018-10-16T05:10:42.478Z,95587.53
2018-10-16T05:13:10.996Z,95588.37
2018-10-16T05:15:39.356Z,95584.33
2018-10-16T05:18:07.792Z,95592.91
2018-10-16T05:20:36.190Z,95595.73
2018-10-16T05:23:04.702Z,95597.09
2018-10-16T05:25:33.125Z,95591.98
2018-10-16T05:28:02.091Z,95602.43
2018-10-16T05:30:30.493Z,95597.36
2018-10-16T05:32:58.960Z,95601.95
2018-10-16T05:35:27.360Z,95602.61
2018-10-16T05:37:55.820Z,95605.34
2018-10-16T05:40:24.258Z,95610.42
2018-10-16T05:42:52.667Z,95610.98
2018-10-16T05:45:21.183Z,95608.48
2018-10-16T05:47:49.634Z,95621.16
2018-10-16T05:50:18.078Z,95620.18
2018-10-16T05:52:46.481Z,95626.92
2018-10-16T05:55:14.973Z,95622.73
2018-10-16T05:57:43.447Z,95631.61
2018-10-16T06:00:23.405Z,95629.69
2018-10-16T06:02:51.818Z,95635.11
2018-10-16T06:05:20.278Z,95640.13
2018-10-16T06:07:48.692Z,95645.12
2018-10-16T06:10:17.131Z,95644.38
2018-10-16T06:12:45.550Z,95647.97
2018-10-16T06:15:13.982Z,95650.02
2018-10-16T06:17:42.398Z,95642.33
2018-10-16T06:20:12.658Z,95642.13
2018-10-16T06:22:41.709Z,95644.80
2018-10-16T06:25:10.733Z,95645.06
2018-10-16T06:27:40.612Z,95648.93
2018-10-16T06:30:09.697Z,95649.46
2018-10-16T06:32:38.402Z,95648.03
2018-10-16T06:35:07.953Z,95650.14
2018-10-16T06:37:36.466Z,95650.70
2018-10-16T06:40:05.834Z,95655.59
2018-10-16T06:42:34.277Z,95658.41
2018-10-16T06:45:02.929Z,95657.56
2018-10-16T06:47:31.594Z,95661.32
2018-10-16T06:49:59.922Z,95663.73
2018-10-16T06:52:28.429Z,95662.31
2018-10-16T06:54:56.899Z,95663.38
2018-10-16T06:57:25.367Z,95663.54
2018-10-16T06:59:54.121Z,95662.59
2018-10-16T07:02:22.719Z,95666.09
2018-10-16T07:04:51.138Z,95664.09
2018-10-16T07:07:19.981Z,95664.45
2018-10-16T07:09:48.270Z,95668.42
2018-10-16T07:12:16.793Z,95667.11
2018-10-16T07:14:45.297Z,95667.27
2018-10-16T07:17:13.739Z,95667.92
2018-10-16T07:19:42.149Z,95667.13
2018-10-16T07:22:12.304Z,95666.53
2018-10-16T07:24:40.722Z,95670.38
2018-10-16T07:27:09.198Z,95665.83
2018-10-16T07:29:37.654Z,95666.51
2018-10-16T07:32:06.427Z,95668.02
2018-10-16T07:34:35.331Z,95662.91
2018-10-16T07:37:03.762Z,95656.76
2018-10-16T07:39:32.245Z,95659.41
2018-10-16T07:42:00.658Z,95654.94
2018-10-16T07:44:29.177Z,95661.91
2018-10-16T07:46:58.118Z,95661.34
2018-10-16T07:49:26.570Z,95661.59
2018-10-16T07:51:54.991Z,95655.80
2018-10-16T07:54:24.084Z,95657.52
2018-10-16T07:56:52.522Z,95658.28
2018-10-16T07:59:20.978Z,95659.80
2018-10-16T08:01:49.418Z,95661.56
2018-10-16T08:04:17.889Z,95658.98
2018-10-16T08:06:46.311Z,95661.05
2018-10-16T08:09:15.942Z,95660.92
2018-10-16T08:11:44.914Z,95657.66
2018-10-16T08:14:14.232Z,95658.21
2018-10-16T08:16:42.963Z,95659.09
2018-10-16T08:19:11.461Z,95660.30
2018-10-16T08:21:39.910Z,95660.19
2018-10-16T08:24:08.620Z,95660.03
2018-10-16T08:26:37.071Z,95659.91
2018-10-16T08:29:06.126Z,95660.41
2018-10-16T08:31:34.578Z,95666.84
2018-10-16T08:34:03.882Z,95652.89
2018-10-16T08:36:32.744Z,95654.42
2018-10-16T08:39:15.551Z,95652.33
2018-10-16T08:41:55.579Z,95658.94
2018-10-16T08:45:18.735Z,95651.39
2018-10-16T08:47:58.796Z,95658.30
2018-10-16T08:50:41.044Z,95659.95
2018-10-16T08:53:09.467Z,95659.95
2018-10-16T08:55:37.953Z,95663.74
2018-10-16T08:58:06.491Z,95666.70
2018-10-16T09:00:35.826Z,95668.20
2018-10-16T09:03:04.311Z,95663.74
2018-10-16T09:05:32.750Z,95664.41
2018-10-16T09:08:01.991Z,95665.88
2018-10-16T09:10:30.439Z,95669.31
2018-10-16T09:12:58.923Z,95667.48
2018-10-16T09:15:27.391Z,95673.72
2018-10-16T09:17:55.844Z,95677.48
2018-10-16T09:20:24.278Z,95680.41
2018-10-16T09:22:52.748Z,95679.37
2018-10-16T09:25:21.166Z,95679.72
2018-10-16T09:27:49.671Z,95682.36
2018-10-16T09:30:18.110Z,95682.49
2018-10-16T09:32:46.655Z,95682.66
2018-10-16T09:35:15.062Z,95683.99
2018-10-16T09:37:43.637Z,95681.50
2018-10-16T09:40:13.022Z,95681.56
2018-10-16T09:42:41.447Z,95678.38
2018-10-16T09:45:10.902Z,95685.56
2018-10-16T09:47:39.538Z,95684.59
2018-10-16T09:50:09.147Z,95684.38
2018-10-16T09:52:37.574Z,95681.70
2018-10-16T09:55:07.026Z,95683.82
2018-10-16T09:57:38.010Z,95682.56
2018-10-16T10:00:17.491Z,95686.49
2018-10-16T10:02:46.075Z,95680.78
2018-10-16T10:05:14.578Z,95676.03
2018-10-16T10:07:49.713Z,95679.16
2018-10-16T10:10:18.260Z,95680.97
2018-10-16T10:12:51.080Z,95679.31
2018-10-16T10:15:19.542Z,95684.89
2018-10-16T10:17:47.982Z,95686.06
2018-10-16T10:20:16.619Z,95678.78
2018-10-16T10:22:46.550Z,95681.73
2018-10-16T10:25:15.090Z,95676.67
2018-10-16T10:27:43.514Z,95681.77
2018-10-16T10:30:12.643Z,95683.31
2018-10-16T10:32:41.217Z,95681.28
2018-10-16T10:35:11.393Z,95677.27
2018-10-16T10:37:39.818Z,95672.11
2018-10-16T10:40:08.370Z,95675.04
2018-10-16T10:42:36.882Z,95676.89
2018-10-16T10:45:06.722Z,95668.00
2018-10-16T10:47:35.175Z,95666.91
2018-10-16T10:50:03.813Z,95671.13
2018-10-16T10:52:32.094Z,95669.09
2018-10-16T10:55:00.485Z,95668.94
2018-10-16T10:57:28.951Z,95663.66
2018-10-16T10:59:57.408Z,95665.92
2018-10-16T11:02:41.769Z,95659.05
2018-10-16T11:05:12.270Z,95664.59
2018-10-16T11:07:40.718Z,95663.86
2018-10-16T11:10:11.788Z,95655.56
2018-10-16T11:12:40.439Z,95658.49
2018-10-16T11:15:08.998Z,95653.64
2018-10-16T11:17:38.697Z,95654.42
2018-10-16T11:20:08.242Z,95654.56
2018-10-16T11:22:36.674Z,95652.23
2018-10-16T11:25:06.194Z,95649.57
2018-10-16T11:30:12.137Z,95643.91
2018-10-16T11:32:40.854Z,95647.48
2018-10-16T11:35:10.210Z,95645.24
2018-10-16T11:37:38.802Z,95645.97
2018-10-16T11:40:07.537Z,95639.86
2018-10-16T11:42:35.949Z,95642.64
2018-10-16T11:45:04.826Z,95640.64
2018-10-16T11:47:33.188Z,95640.39
2018-10-16T11:50:02.033Z,95644.80
2018-10-16T11:52:30.431Z,95644.45
2018-10-16T11:54:58.889Z,95648.59
2018-10-16T11:57:27.382Z,95651.50
2018-10-16T11:59:55.878Z,95646.66
2018-10-16T12:02:24.368Z,95646.12
2018-10-16T12:04:52.830Z,95649.59
2018-10-16T12:07:21.268Z,95647.39
2018-10-16T12:09:49.754Z,95649.34
2018-10-16T12:12:18.154Z,95650.47
2018-10-16T12:14:46.723Z,95647.56
2018-10-16T12:19:22.402Z,95651.78
2018-10-16T12:21:50.932Z,95646.36
2018-10-16T12:24:19.410Z,95641.57
2018-10-16T12:26:47.960Z,95644.80
2018-10-16T12:29:16.878Z,95642.75
2018-10-16T12:31:47.897Z,95640.50
2018-10-16T12:34:16.376Z,95641.33
2018-10-16T12:36:45.695Z,95642.75
2018-10-16T12:39:14.223Z,95634.92
2018-10-16T12:41:42.570Z,95634.56
2018-10-16T12:44:11.038Z,95631.41
2018-10-16T12:46:40.281Z,95637.52
2018-10-16T12:49:08.683Z,95631.55
2018-10-16T12:51:38.170Z,95632.19
2018-10-16T12:54:09.147Z,95628.77
2018-10-16T12:56:49.778Z,95628.86
2018-10-16T12:59:18.159Z,95620.69
2018-10-16T13:01:46.641Z,95621.30
2018-10-16T13:04:15.051Z,95623.89
2018-10-16T13:06:47.816Z,95622.19
2018-10-16T13:09:16.269Z,95618.99
2018-10-16T13:11:45.874Z,95618.97
2018-10-16T13:14:15.072Z,95617.20
2018-10-16T13:16:44.627Z,95620.89
2018-10-16T13:19:13.046Z,95618.58
2018-10-16T13:21:43.383Z,95624.11
2018-10-16T13:24:11.775Z,95622.14
2018-10-16T13:26:40.383Z,95617.31
2018-10-16T13:29:08.888Z,95618.84
2018-10-16T13:31:37.302Z,95621.86
2018-10-16T13:34:06.648Z,95618.22
2018-10-16T13:36:35.062Z,95623.77
2018-10-16T13:39:04.677Z,95613.55
2018-10-16T13:41:33.075Z,95613.54
2018-10-16T13:44:02.702Z,95621.47
2018-10-16T13:46:31.062Z,95614.97
2018-10-16T13:48:59.646Z,95608.25
2018-10-16T13:51:35.516Z,95613.35
2018-10-16T13:54:05.467Z,95605.68
2018-10-16T13:56:33.884Z,95609.55
2018-10-16T13:59:02.937Z,95612.20
2018-10-16T14:01:31.362Z,95611.22
2018-10-16T14:03:59.975Z,95602.46
2018-10-16T14:06:28.475Z,95602.78
2018-10-16T14:08:56.993Z,95601.80
2018-10-16T14:11:25.413Z,95600.95
2018-10-16T14:13:54.210Z,95594.46
2018-10-16T14:16:22.697Z,95603.36
2018-10-16T14:18:51.273Z,95596.53
2018-10-16T14:21:19.753Z,95602.75
2018-10-16T14:23:48.192Z,95598.49
2018-10-16T14:26:16.822Z,95592.09
2018-10-16T14:28:45.211Z,95591.80
2018-10-16T14:31:13.662Z,95591.23
2018-10-16T14:33:42.178Z,95593.75
2018-10-16T14:36:11.136Z,95590.27
2018-10-16T14:38:39.571Z,95595.15
2018-10-16T14:41:08.070Z,95593.64
2018-10-16T14:43:37.386Z,95590.63
2018-10-16T14:46:06.122Z,95586.50
2018-10-16T14:48:35.422Z,95593.28
2018-10-16T14:51:03.894Z,95593.31
2018-10-16T14:53:33.374Z,95593.46
2018-10-16T14:56:02.094Z,95597.34
2018-10-16T14:58:30.544Z,95598.05
2018-10-16T15:00:58.986Z,95603.13
2018-10-16T15:03:28.094Z,95607.33
2018-10-16T15:05:57.363Z,95603.59
2018-10-16T15:08:25.775Z,95601.59
2018-10-16T15:10:54.220Z,95603.28
2018-10-16T15:13:22.610Z,95600.36
2018-10-16T15:15:51.082Z,95610.48
2018-10-16T15:18:19.618Z,95610.80
2018-10-16T15:20:48.022Z,95607.27
2018-10-16T15:23:16.516Z,95608.56
2018-10-16T15:25:44.979Z,95600.41
2018-10-16T15:28:13.477Z,95601.02
2018-10-16T15:30:41.858Z,95600.02
2018-10-16T15:33:10.306Z,95603.17
2018-10-16T15:35:38.803Z,95606.84
2018-10-16T15:38:07.208Z,95618.01
2018-10-16T15:40:36.467Z,95621.52
2018-10-16T15:43:04.957Z,95618.30
2018-10-16T15:45:33.351Z,95616.29
2018-10-16T15:48:02.224Z,95619.41
2018-10-16T15:50:30.601Z,95622.84
2018-10-16T15:52:59.543Z,95626.48
2018-10-16T15:55:27.979Z,95626.02
2018-10-16T15:57:56.968Z,95629.25
2018-10-16T16:00:25.387Z,95632.27
2018-10-16T16:02:53.826Z,95628.73
2018-10-16T16:05:22.245Z,95632.08
2018-10-16T16:07:50.787Z,95637.45
2018-10-16T16:10:19.141Z,95640.09
2018-10-16T16:12:47.575Z,95640.91
2018-10-16T16:15:15.997Z,95647.73
2018-10-16T16:17:44.778Z,95645.35
2018-10-16T16:20:14.349Z,95649.09
2018-10-16T16:22:42.689Z,95646.12
2018-10-16T16:25:12.596Z,95650.66
2018-10-16T16:27:44.770Z,95644.69
2018-10-16T16:30:15.339Z,95650.20
2018-10-16T16:32:47.965Z,95649.65
2018-10-16T16:35:17.278Z,95653.23
2018-10-16T16:37:45.686Z,95649.64
2018-10-16T16:40:14.846Z,95654.13
2018-10-16T16:42:44.369Z,95653.86
2018-10-16T16:45:13.332Z,95661.66
2018-10-16T16:47:41.794Z,95660.18
2018-10-16T16:50:12.201Z,95659.99
2018-10-16T16:52:41.418Z,95663.64
2018-10-16T16:55:11.434Z,95663.18
2018-10-16T16:57:41.992Z,95664.06
2018-10-16T17:00:11.797Z,95673.14
2018-10-16T17:02:40.899Z,95669.05
2018-10-16T17:05:10.114Z,95668.05
2018-10-16T17:07:38.530Z,95671.22
2018-10-16T17:10:07.684Z,95664.97
2018-10-16T17:12:36.223Z,95673.25
2018-10-16T17:15:10.213Z,95675.75
2018-10-16T17:17:39.431Z,95679.55
2018-10-16T17:20:10.063Z,95683.17
2018-10-16T17:22:38.482Z,95685.34
2018-10-16T17:25:08.334Z,95690.30
2018-10-16T17:27:37.803Z,95686.19
2018-10-16T17:30:09.123Z,95686.34
2018-10-16T17:32:37.818Z,95694.42
2018-10-16T17:35:07.026Z,95700.20
2018-10-16T17:37:39.360Z,95701.20
2018-10-16T17:40:09.354Z,95696.76
2018-10-16T17:42:38.018Z,95702.52
2018-10-16T17:45:07.251Z,95700.89
2018-10-16T17:47:36.048Z,95703.66
2018-10-16T17:50:04.829Z,95697.09
2018-10-16T17:52:33.278Z,95698.08
2018-10-16T17:55:01.928Z,95702.87
2018-10-16T17:57:30.433Z,95699.09
2018-10-16T17:59:58.846Z,95701.72
2018-10-16T18:02:27.434Z,95697.47
2018-10-16T18:04:55.984Z,95699.27
2018-10-16T18:07:24.570Z,95694.33
2018-10-16T18:09:53.009Z,95698.77
2018-10-16T18:12:21.675Z,95700.60
2018-10-16T18:14:50.246Z,95705.04
2018-10-16T18:17:18.743Z,95705.53
2018-10-16T18:19:47.235Z,95705.85
2018-10-16T18:22:15.667Z,95706.50
2018-10-16T18:24:44.306Z,95712.91
2018-10-16T18:27:12.984Z,95707.14
2018-10-16T18:29:41.940Z,95713.38
2018-10-16T18:32:10.607Z,95709.77
2018-10-16T18:34:39.398Z,95711.92
2018-10-16T18:37:07.406Z,95708.45
2018-10-16T18:39:36.448Z,95712.22
2018-10-16T18:42:05.357Z,95708.63
2018-10-16T18:44:34.314Z,95708.45
2018-10-16T18:47:02.984Z,95707.28
2018-10-16T18:49:31.592Z,95713.03
2018-10-16T18:52:00.488Z,95714.35
2018-10-16T18:54:29.224Z,95713.06
2018-10-16T18:56:58.012Z,95722.59
2018-10-16T18:59:26.741Z,95716.50
2018-10-16T19:01:55.354Z,95714.35
2018-10-16T19:04:23.943Z,95714.70
2018-10-16T19:06:52.389Z,95717.95
2018-10-16T19:09:21.048Z,95717.13
2018-10-16T19:11:49.498Z,95717.95
2018-10-16T19:14:18.606Z,95719.27
2018-10-16T19:16:47.318Z,95722.38
2018-10-16T19:19:16.047Z,95724.52
2018-10-16T19:21:44.601Z,95717.91
2018-10-16T19:24:13.149Z,95724.12
2018-10-16T19:26:41.695Z,95722.31
2018-10-16T19:29:13.201Z,95717.70
2018-10-16T19:31:42.270Z,95723.92
2018-10-16T19:34:10.686Z,95724.40
2018-10-16T19:36:39.181Z,95725.05
2018-10-16T19:39:09.608Z,95726.80
2018-10-16T19:41:38.762Z,95726.36
2018-10-16T19:44:07.368Z,95727.33
2018-10-16T19:46:35.848Z,95727.20
2018-10-16T19:49:07.974Z,95729.09
2018-10-16T19:51:36.609Z,95732.28
2018-10-16T19:54:05.454Z,95734.25
2018-10-16T19:56:34.068Z,95730.41
2018-10-16T19:59:03.231Z,95729.37
2018-10-16T20:01:32.520Z,95728.36
2018-10-16T20:04:08.094Z,95730.09
2018-10-16T20:06:37.215Z,95726.63
2018-10-16T20:09:08.677Z,95727.45
2018-10-16T20:11:38.302Z,95722.02
2018-10-16T20:14:07.505Z,95725.48
2018-10-16T20:16:36.389Z,95729.30
2018-10-16T20:19:05.552Z,95721.52
2018-10-16T20:21:34.514Z,95725.48
2018-10-16T20:24:04.006Z,95721.89
2018-10-16T20:26:32.831Z,95724.70
2018-10-16T20:29:01.726Z,95724.83
2018-10-16T20:31:30.947Z,95721.89
2018-10-16T20:33:59.837Z,95725.81
2018-10-16T20:36:28.880Z,95720.64
2018-10-16T20:38:57.891Z,95725.27
2018-10-16T20:41:26.935Z,95725.36
2018-10-16T20:43:55.959Z,95721.23
2018-10-16T20:46:24.892Z,95721.48
2018-10-16T20:48:54.021Z,95719.81
2018-10-16T20:51:23.064Z,95717.70
2018-10-16T20:53:53.200Z,95719.02
2018-10-16T20:56:22.040Z,95716.54
2018-10-16T20:58:52.730Z,95716.72
2018-10-16T21:01:22.431Z,95713.05
2018-10-16T21:03:51.302Z,95712.36
2018-10-16T21:06:20.678Z,95712.11
2018-10-16T21:08:49.253Z,95714.27
2018-10-16T21:11:18.117Z,95715.27
2018-10-16T21:13:46.874Z,95712.27
2018-10-16T21:16:16.036Z,95711.58
2018-10-16T21:21:30.212Z,95708.98
2018-10-16T21:23:59.082Z,95706.38
2018-10-16T21:26:28.225Z,95706.12
2018-10-16T21:28:57.068Z,95705.20
2018-10-16T21:31:26.128Z,95708.61
2018-10-16T21:33:55.178Z,95704.41
2018-10-16T21:36:24.197Z,95701.70
2018-10-16T21:38:55.772Z,95696.16
2018-10-16T21:41:24.763Z,95700.15
2018-10-16T21:43:53.892Z,95707.05
2018-10-16T21:46:23.109Z,95703.64
2018-10-16T21:48:52.220Z,95696.17
2018-10-16T21:51:21.224Z,95697.27
2018-10-16T21:53:52.937Z,95698.53
2018-10-16T21:56:23.154Z,95696.58
2018-10-16T21:58:52.263Z,95696.48
2018-10-16T22:01:25.463Z,95693.00
2018-10-16T22:03:54.299Z,95702.17
2018-10-16T22:06:23.925Z,95697.70
2018-10-16T22:08:53.124Z,95694.89
2018-10-16T22:11:22.120Z,95704.84
2018-10-16T22:13:51.182Z,95699.44
2018-10-16T22:16:20.118Z,95697.36
2018-10-16T22:18:49.057Z,95704.13
2018-10-16T22:24:02.347Z,95700.17
2018-10-16T22:26:31.640Z,95696.81
2018-10-16T22:29:01.209Z,95695.88
2018-10-16T22:31:30.072Z,95701.66
2018-10-16T22:33:59.104Z,95694.95
2018-10-16T22:36:29.129Z,95703.48
2018-10-16T22:38:57.943Z,95704.41
2018-10-16T22:41:26.861Z,95710.41
2018-10-16T22:43:55.976Z,95703.99
2018-10-16T22:46:24.813Z,95704.64
2018-10-16T22:48:53.711Z,95703.01
2018-10-16T22:51:23.655Z,95699.51
2018-10-16T22:53:53.181Z,95696.42
2018-10-16T22:56:22.035Z,95697.93
2018-10-16T22:58:50.996Z,95701.65
2018-10-16T23:01:20.690Z,95701.23
2018-10-16T23:03:49.550Z,95706.41
2018-10-16T23:06:18.924Z,95706.83
2018-10-16T23:08:48.065Z,95708.26
2018-10-16T23:11:17.173Z,95706.84
2018-10-16T23:13:46.042Z,95711.30
2018-10-16T23:16:14.905Z,95707.63
2018-10-16T23:18:44.114Z,95706.95
2018-10-16T23:21:12.967Z,95701.30
2018-10-16T23:23:41.814Z,95708.12
2018-10-16T23:26:10.746Z,95704.39
2018-10-16T23:28:39.644Z,95702.98
2018-10-16T23:31:08.590Z,95703.59
2018-10-16T23:33:39.659Z,95710.80
2018-10-16T23:36:14.813Z,95710.30
2018-10-16T23:38:43.216Z,95712.95
2018-10-16T23:41:12.253Z,95708.39
2018-10-16T23:43:41.131Z,95708.19
2018-10-16T23:46:10.125Z,95713.53
2018-10-16T23:48:39.537Z,95708.72
2018-10-16T23:51:08.844Z,95715.01
2018-10-16T23:53:38.516Z,95712.22
2018-10-16T23:56:07.653Z,95707.94
2018-10-16T23:58:36.573Z,95708.57
